Time;durP1;ratioP1;P1;durP2;ratioP2;P2;SDS_P1;SDS_P2;PMS_P1;PMS_P2;Temp;Humidity;BMP_temperature;BMP_pressure;BME280_temperature;BME280_humidity;BME280_pressure;Samples;Min_cycle;Max_cycle;Signal;HPM_P1;HPM_P2
2021/10/06 00:00:39;;;;;;;12.60;9.88;;;;;;;10.70;100.00;100583.66;4954092;28;20085;-79
2021/10/06 00:03:04;;;;;;;14.07;9.85;;;;;;;10.65;100.00;100575.41;4959120;28;20428;-77
2021/10/06 00:05:30;;;;;;;11.68;9.35;;;;;;;10.69;100.00;100580.19;4942973;28;20030;-78
2021/10/06 00:07:55;;;;;;;13.40;8.75;;;;;;;10.65;100.00;100581.47;4943431;28;20046;-80
2021/10/06 00:10:21;;;;;;;11.35;9.07;;;;;;;10.70;100.00;100594.16;4935588;28;20495;-80
2021/10/06 00:12:46;;;;;;;13.18;9.40;;;;;;;10.71;100.00;100598.41;4945928;28;20096;-81
2021/10/06 00:15:13;;;;;;;12.25;9.02;;;;;;;10.73;100.00;100599.09;4962776;28;20038;-80
2021/10/06 00:17:40;;;;;;;13.15;9.52;;;;;;;10.71;100.00;100607.09;4946471;28;20402;-81
2021/10/06 00:20:08;;;;;;;12.20;9.15;;;;;;;10.70;100.00;100608.09;4978671;28;20030;-82
2021/10/06 00:22:33;;;;;;;12.23;9.27;;;;;;;10.73;100.00;100603.50;4942891;28;20047;-81
2021/10/06 00:24:59;;;;;;;11.85;9.07;;;;;;;10.77;100.00;100610.09;4951748;28;20092;-79
2021/10/06 00:27:24;;;;;;;12.90;9.25;;;;;;;10.76;100.00;100613.72;4946315;28;20551;-81
2021/10/06 00:29:50;;;;;;;12.45;9.38;;;;;;;10.79;100.00;100616.03;4955800;28;20038;-79
2021/10/06 00:32:16;;;;;;;12.20;8.98;;;;;;;10.73;100.00;100608.75;4947647;28;20053;-79
2021/10/06 00:34:42;;;;;;;11.63;8.82;;;;;;;10.71;100.00;100619.41;4995957;28;20111;-82
2021/10/06 00:37:07;;;;;;;10.90;9.50;;;;;;;10.74;100.00;100620.88;4944488;28;20035;-75
2021/10/06 00:39:33;;;;;;;10.57;8.30;;;;;;;10.76;100.00;100617.16;4952562;28;20038;-80
2021/10/06 00:41:58;;;;;;;11.57;9.20;;;;;;;10.83;100.00;100630.47;4967164;28;20117;-79
2021/10/06 00:44:24;;;;;;;13.18;9.13;;;;;;;10.75;100.00;100620.75;4949933;28;20408;-79
2021/10/06 00:46:50;;;;;;;13.00;9.95;;;;;;;10.74;100.00;100631.38;4965028;28;20488;-81
2021/10/06 00:49:17;;;;;;;12.50;9.00;;;;;;;10.64;100.00;100629.69;4948594;28;20027;-81
2021/10/06 00:51:43;;;;;;;14.82;8.18;;;;;;;10.61;100.00;100629.97;4947570;28;20057;-86
2021/10/06 00:54:08;;;;;;;11.57;7.90;;;;;;;10.60;100.00;100630.94;4948599;28;20053;-78
2021/10/06 00:56:34;;;;;;;12.13;8.07;;;;;;;10.54;100.00;100628.09;4941422;28;20125;-79
2021/10/06 00:59:00;;;;;;;13.45;9.13;;;;;;;10.61;100.00;100632.59;4941862;28;20038;-78
2021/10/06 01:01:26;;;;;;;13.82;10.15;;;;;;;10.65;100.00;100628.69;4957454;28;20736;-78
2021/10/06 01:03:51;;;;;;;16.15;9.65;;;;;;;10.72;100.00;100636.81;4965742;28;20073;-81
2021/10/06 01:06:17;;;;;;;13.20;9.95;;;;;;;10.75;100.00;100635.66;4962888;28;20039;-78
2021/10/06 01:08:43;;;;;;;13.52;9.85;;;;;;;10.75;100.00;100638.28;4961947;28;20077;-80
2021/10/06 01:11:10;;;;;;;15.48;10.10;;;;;;;10.72;100.00;100639.44;4951192;28;20496;-80
2021/10/06 01:13:37;;;;;;;11.80;9.30;;;;;;;10.77;100.00;100642.41;4962046;28;20121;-80
2021/10/06 01:16:04;;;;;;;13.77;9.77;;;;;;;10.80;100.00;100643.91;4958754;28;20035;-81
2021/10/06 01:18:30;;;;;;;13.60;9.80;;;;;;;10.80;100.00;100649.16;4970094;28;20060;-82
2021/10/06 01:20:55;;;;;;;15.30;10.23;;;;;;;10.78;100.00;100654.56;4969338;28;20134;-78
2021/10/06 01:23:21;;;;;;;13.05;9.75;;;;;;;10.68;100.00;100659.88;4964071;28;20543;-80
2021/10/06 01:25:47;;;;;;;14.15;9.75;;;;;;;10.69;100.00;100669.38;4950410;28;20141;-79
2021/10/06 01:28:12;;;;;;;14.90;8.88;;;;;;;10.61;100.00;100658.81;4949322;28;20034;-81
2021/10/06 01:30:38;;;;;;;13.13;10.30;;;;;;;10.71;100.00;100669.25;4958582;28;20038;-78
2021/10/06 01:33:04;;;;;;;17.50;9.70;;;;;;;10.69;100.00;100671.19;4973593;28;20034;-79
2021/10/06 01:35:30;;;;;;;16.58;10.10;;;;;;;10.65;100.00;100668.03;4946588;28;20557;-78
2021/10/06 01:37:55;;;;;;;15.48;10.25;;;;;;;10.69;100.00;100676.44;4951855;28;20134;-80
2021/10/06 01:40:22;;;;;;;13.90;10.27;;;;;;;10.68;100.00;100678.25;4975432;28;20532;-79
2021/10/06 01:42:49;;;;;;;16.83;10.13;;;;;;;10.68;100.00;100680.88;4960990;28;20035;-77
2021/10/06 01:45:21;;;;;;;15.23;9.82;;;;;;;10.60;100.00;100674.69;4955824;28;20042;-78
2021/10/06 01:47:47;;;;;;;14.93;9.93;;;;;;;10.56;100.00;100682.03;4943355;28;20394;-78
2021/10/06 01:50:24;;;;;;;16.92;9.38;;;;;;;10.54;100.00;100680.53;4958809;28;20045;-80
2021/10/06 01:52:50;;;;;;;17.70;10.50;;;;;;;10.52;100.00;100684.13;4960762;28;20045;-79
2021/10/06 01:55:16;;;;;;;18.70;11.50;;;;;;;10.46;100.00;100692.59;4961065;28;20030;-77
2021/10/06 01:57:42;;;;;;;19.08;10.57;;;;;;;10.43;100.00;100690.25;4942175;28;20041;-79
2021/10/06 02:00:08;;;;;;;13.18;8.57;;;;;;;10.25;100.00;100689.38;4944653;28;20516;-79
2021/10/06 02:02:36;;;;;;;15.90;10.10;;;;;;;10.11;100.00;100694.13;4979090;28;20053;-78
2021/10/06 02:05:01;;;;;;;10.50;9.07;;;;;;;9.92;100.00;100691.56;4980536;28;20046;-76
2021/10/06 02:07:27;;;;;;;15.80;10.07;;;;;;;9.92;100.00;100687.16;4985146;28;20278;-77
2021/10/06 02:09:52;;;;;;;16.63;9.43;;;;;;;9.92;100.00;100699.44;4975321;28;20030;-75
2021/10/06 02:12:18;;;;;;;15.68;10.82;;;;;;;9.81;100.00;100696.97;4980710;28;20477;-78
2021/10/06 02:14:43;;;;;;;16.80;10.23;;;;;;;9.76;100.00;100692.19;4957566;28;20073;-78
2021/10/06 02:17:09;;;;;;;17.67;11.10;;;;;;;9.79;100.00;100691.06;4973313;28;20107;-79
2021/10/06 02:19:34;;;;;;;19.83;11.18;;;;;;;9.71;100.00;100697.84;4967755;28;20135;-78
2021/10/06 02:22:00;;;;;;;18.67;10.98;;;;;;;9.67;100.00;100699.09;4965767;28;20042;-79
2021/10/06 02:24:25;;;;;;;18.75;11.23;;;;;;;9.62;100.00;100701.28;4955776;28;20038;-80
2021/10/06 02:26:51;;;;;;;18.27;11.70;;;;;;;9.59;100.00;100701.59;4979913;28;20481;-81
2021/10/06 02:29:17;;;;;;;18.10;11.77;;;;;;;9.59;100.00;100701.59;4943946;28;20027;-78
2021/10/06 02:31:42;;;;;;;16.58;10.38;;;;;;;9.62;100.00;100703.91;4977674;28;20045;-80
2021/10/06 02:34:07;;;;;;;15.65;11.02;;;;;;;9.62;100.00;100714.38;4961427;28;20093;-79
2021/10/06 02:36:33;;;;;;;17.25;11.00;;;;;;;9.59;100.00;100714.69;4959387;28;20038;-76
2021/10/06 02:38:58;;;;;;;16.77;10.50;;;;;;;9.51;100.00;100704.06;4959605;28;20143;-79
2021/10/06 02:41:24;;;;;;;15.35;10.95;;;;;;;9.60;100.00;100715.50;4958834;28;20528;-79
2021/10/06 02:43:49;;;;;;;16.15;11.10;;;;;;;9.65;100.00;100718.53;4978897;28;20117;-79
2021/10/06 02:46:15;;;;;;;25.58;12.90;;;;;;;9.74;100.00;100717.69;4966459;28;20517;-79
2021/10/06 02:48:40;;;;;;;17.40;12.50;;;;;;;9.81;100.00;100718.75;4995377;28;20113;-79
2021/10/06 02:51:06;;;;;;;16.15;11.75;;;;;;;9.83;100.00;100718.63;4975773;28;20034;-80
2021/10/06 02:53:31;;;;;;;19.55;11.98;;;;;;;9.87;100.00;100722.59;4979648;28;20038;-80
2021/10/06 02:55:57;;;;;;;20.23;12.43;;;;;;;10.02;100.00;100722.97;4974486;28;20399;-80
2021/10/06 02:58:22;;;;;;;20.85;12.40;;;;;;;10.11;100.00;100728.19;4958494;28;20524;-77
2021/10/06 03:00:48;;;;;;;19.02;11.88;;;;;;;10.17;100.00;100728.56;4959586;28;20066;-78
2021/10/06 03:03:13;;;;;;;18.70;11.02;;;;;;;10.26;100.00;100739.00;4959327;28;20038;-77
2021/10/06 03:05:39;;;;;;;23.55;11.55;;;;;;;10.38;100.00;100736.25;4972109;28;20091;-78
2021/10/06 03:08:04;;;;;;;21.88;11.50;;;;;;;10.46;100.00;100744.22;4970102;28;20027;-78
2021/10/06 03:10:30;;;;;;;18.30;10.27;;;;;;;10.45;100.00;100747.81;4957036;28;20096;-77
2021/10/06 03:12:55;;;;;;;13.60;9.40;;;;;;;10.46;100.00;100749.47;4965109;28;20030;-78
2021/10/06 03:15:21;;;;;;;18.77;9.93;;;;;;;10.50;100.00;100753.44;4957928;28;20034;-79
2021/10/06 03:17:46;;;;;;;16.58;9.30;;;;;;;10.50;100.00;100756.88;4974402;28;20176;-79
2021/10/06 03:20:12;;;;;;;18.67;10.38;;;;;;;10.49;100.00;100760.50;4970240;28;20045;-79
2021/10/06 03:22:38;;;;;;;19.05;8.95;;;;;;;10.50;100.00;100762.13;4970596;28;20497;-78
2021/10/06 03:25:05;;;;;;;14.70;9.13;;;;;;;10.49;100.00;100764.88;4976646;28;20500;-80
2021/10/06 03:27:30;;;;;;;17.65;9.85;;;;;;;10.54;100.00;100765.28;4949964;28;20154;-77
2021/10/06 03:29:56;;;;;;;15.80;9.07;;;;;;;10.47;100.00;100766.84;4942176;28;20117;-79
2021/10/06 03:32:21;;;;;;;12.65;8.90;;;;;;;10.52;100.00;100775.09;4956909;28;20516;-78
2021/10/06 03:34:46;;;;;;;13.05;8.85;;;;;;;10.50;100.00;100775.25;4970298;28;20034;-77
2021/10/06 03:37:12;;;;;;;17.63;9.77;;;;;;;10.43;100.00;100768.91;4956720;28;20409;-80
2021/10/06 03:39:38;;;;;;;19.20;8.85;;;;;;;10.50;100.00;100780.50;4950777;28;20065;-79
2021/10/06 03:42:03;;;;;;;17.48;9.40;;;;;;;10.49;100.00;100784.09;4944192;28;20124;-77
2021/10/06 03:44:29;;;;;;;16.10;8.73;;;;;;;10.39;100.00;100788.53;4955850;28;20039;-78
2021/10/06 03:46:55;;;;;;;17.48;9.25;;;;;;;10.41;100.00;100794.47;4963864;28;20037;-77
2021/10/06 03:49:21;;;;;;;13.82;8.27;;;;;;;10.41;100.00;100793.66;4972067;28;20272;-82
2021/10/06 03:51:46;;;;;;;11.02;8.05;;;;;;;10.41;100.00;100797.09;4956467;28;20133;-81
2021/10/06 03:54:12;;;;;;;19.92;8.27;;;;;;;10.46;100.00;100804.53;4940241;28;20042;-79
2021/10/06 03:56:38;;;;;;;16.13;8.35;;;;;;;10.32;100.00;100801.41;4956920;28;20038;-78
2021/10/06 03:59:03;;;;;;;14.43;7.70;;;;;;;10.24;100.00;100797.81;4959496;28;20068;-78
2021/10/06 04:01:29;;;;;;;12.52;7.78;;;;;;;10.11;100.00;100801.59;4954865;28;20034;-77
2021/10/06 04:03:55;;;;;;;17.73;7.97;;;;;;;9.98;100.00;100808.09;4963495;28;20027;-77
2021/10/06 04:06:20;;;;;;;16.92;8.18;;;;;;;9.87;100.00;100804.66;4954087;28;20026;-80
2021/10/06 04:08:46;;;;;;;10.90;7.70;;;;;;;9.90;100.00;100811.41;4958299;28;20026;-77
2021/10/06 04:11:11;;;;;;;17.58;7.28;;;;;;;9.89;100.00;100812.38;4957213;28;20117;-77
2021/10/06 04:13:37;;;;;;;12.65;7.72;;;;;;;9.88;100.00;100810.72;4939674;28;20300;-77
2021/10/06 04:16:02;;;;;;;12.40;7.65;;;;;;;9.88;100.00;100816.78;4946127;28;20038;-82
2021/10/06 04:18:28;;;;;;;17.10;8.20;;;;;;;9.73;100.00;100829.47;4943111;28;20045;-82
2021/10/06 04:20:53;;;;;;;18.30;8.45;;;;;;;9.65;100.00;100824.13;4949015;28;20115;-80
2021/10/06 04:23:18;;;;;;;12.15;7.95;;;;;;;9.66;100.00;100827.56;4960261;28;20057;-82
2021/10/06 04:25:44;;;;;;;19.40;9.05;;;;;;;9.69;100.00;100835.16;4959580;28;20045;-81
2021/10/06 04:28:09;;;;;;;18.77;9.13;;;;;;;9.70;100.00;100836.78;4940961;28;20030;-81
2021/10/06 04:31:07;;;;;;;14.80;8.80;;;;;;;9.68;100.00;100842.19;4959978;23;20038;-90
2021/10/06 04:33:32;;;;;;;17.52;8.75;;;;;;;9.65;100.00;100844.25;4958945;28;20052;-72
2021/10/06 04:35:58;;;;;;;20.08;9.32;;;;;;;9.61;100.00;100848.13;4997771;28;20033;-78
2021/10/06 04:38:23;;;;;;;18.95;9.35;;;;;;;9.58;100.00;100845.75;4963707;28;20077;-74
2021/10/06 04:40:49;;;;;;;19.48;9.23;;;;;;;9.50;100.00;100849.06;4998744;28;20045;-71
2021/10/06 04:43:14;;;;;;;16.10;9.65;;;;;;;9.52;100.00;100855.00;4963756;28;20131;-71
2021/10/06 04:45:40;;;;;;;18.20;9.40;;;;;;;9.47;100.00;100854.56;4958294;28;20525;-73
2021/10/06 04:48:06;;;;;;;15.70;9.68;;;;;;;9.43;100.00;100863.66;4978878;28;20646;-74
2021/10/06 04:50:32;;;;;;;15.68;9.23;;;;;;;9.43;100.00;100861.03;4998562;28;20042;-72
2021/10/06 04:52:57;;;;;;;17.67;9.23;;;;;;;9.43;100.00;100855.81;4982308;28;20494;-76
2021/10/06 04:55:23;;;;;;;16.02;9.43;;;;;;;9.44;100.00;100863.53;4981188;28;20740;-73
2021/10/06 04:57:48;;;;;;;20.08;10.10;;;;;;;9.42;100.00;100865.47;5000485;28;20092;-72
2021/10/06 05:00:16;;;;;;;16.48;10.15;;;;;;;9.38;100.00;100871.94;4979162;28;20038;-72
2021/10/06 05:02:41;;;;;;;16.40;9.82;;;;;;;9.35;100.00;100867.78;4985577;28;20526;-70
2021/10/06 05:05:07;;;;;;;16.30;9.50;;;;;;;9.34;100.00;100866.13;4991544;28;20037;-72
2021/10/06 05:07:35;;;;;;;15.25;9.82;;;;;;;9.40;100.00;100874.38;4996306;28;20045;-72
2021/10/06 05:10:01;;;;;;;15.32;9.43;;;;;;;9.42;100.00;100875.09;4989561;28;20083;-73
2021/10/06 05:12:26;;;;;;;17.52;9.15;;;;;;;9.37;100.00;100879.91;4988837;28;20041;-72
2021/10/06 05:14:52;;;;;;;17.10;9.48;;;;;;;9.35;100.00;100886.09;5006912;28;20026;-71
2021/10/06 05:17:17;;;;;;;13.27;8.90;;;;;;;9.30;100.00;100883.06;4989453;28;20186;-72
2021/10/06 05:19:44;;;;;;;18.80;8.82;;;;;;;9.28;100.00;100887.59;4972399;28;20507;-72
2021/10/06 05:22:11;;;;;;;16.02;8.80;;;;;;;9.28;100.00;100889.41;4987608;28;20138;-71
2021/10/06 05:24:36;;;;;;;14.85;9.18;;;;;;;9.24;100.00;100888.84;4992645;28;20120;-76
2021/10/06 05:27:02;;;;;;;15.57;9.05;;;;;;;9.23;100.00;100888.97;4996187;28;20854;-71
2021/10/06 05:29:28;;;;;;;12.43;8.85;;;;;;;9.18;100.00;100889.38;4992709;28;20037;-71
2021/10/06 05:31:53;;;;;;;21.13;8.88;;;;;;;9.15;100.00;100900.09;4992740;28;20137;-72
2021/10/06 05:34:23;;;;;;;21.85;9.05;;;;;;;9.16;100.00;100904.38;4992870;28;20438;-73
2021/10/06 05:36:48;;;;;;;11.65;7.93;;;;;;;9.19;100.00;100903.28;5008527;28;20026;-72
2021/10/06 05:39:14;;;;;;;17.40;9.25;;;;;;;9.18;100.00;100902.47;4991776;28;20030;-72
2021/10/06 05:41:39;;;;;;;17.33;8.88;;;;;;;9.13;100.00;100912.50;5010885;28;20125;-71
2021/10/06 05:44:05;;;;;;;14.35;8.80;;;;;;;9.12;100.00;100916.91;4992969;28;20033;-75
2021/10/06 05:46:31;;;;;;;16.58;8.77;;;;;;;9.06;100.00;100913.97;4974492;28;20045;-74
2021/10/06 05:48:57;;;;;;;13.35;8.95;;;;;;;9.07;100.00;100932.16;4992747;28;20411;-71
2021/10/06 05:51:22;;;;;;;14.30;9.02;;;;;;;9.03;100.00;100932.56;4993104;28;20033;-70
2021/10/06 05:53:48;;;;;;;17.05;10.35;;;;;;;9.06;100.00;100942.75;4992837;28;20469;-75
2021/10/06 05:56:13;;;;;;;15.68;9.52;;;;;;;9.03;100.00;100938.63;5005647;28;20038;-74
2021/10/06 05:58:39;;;;;;;16.92;9.95;;;;;;;9.12;100.00;100944.88;4991737;28;20781;-71
2021/10/06 06:01:04;;;;;;;16.17;9.95;;;;;;;9.16;100.00;100939.22;4992362;28;20042;-73
2021/10/06 06:03:30;;;;;;;13.02;8.70;;;;;;;9.19;100.00;100942.53;4976452;28;20037;-72
2021/10/06 06:05:55;;;;;;;17.45;9.25;;;;;;;9.25;100.00;100942.84;5006563;28;20080;-72
2021/10/06 06:08:21;;;;;;;16.52;8.98;;;;;;;9.39;100.00;100946.06;4989044;28;20596;-74
2021/10/06 06:10:46;;;;;;;15.90;9.23;;;;;;;9.36;100.00;100949.75;5013320;28;20697;-73
2021/10/06 06:13:12;;;;;;;13.40;7.70;;;;;;;9.45;100.00;100958.59;5009466;28;20033;-72
2021/10/06 06:15:37;;;;;;;14.27;7.97;;;;;;;9.54;100.00;100960.44;5010088;28;20026;-73
2021/10/06 06:18:03;;;;;;;15.85;8.02;;;;;;;9.56;100.00;100961.13;4992040;28;20538;-70
2021/10/06 06:20:28;;;;;;;13.18;7.78;;;;;;;9.66;100.00;100966.38;5009588;28;20042;-72
2021/10/06 06:22:54;;;;;;;14.40;7.40;;;;;;;9.72;100.00;100969.28;5009521;28;20044;-72
2021/10/06 06:25:21;;;;;;;11.32;7.25;;;;;;;9.80;100.00;100968.59;4976671;28;20038;-74
2021/10/06 06:27:47;;;;;;;17.42;7.63;;;;;;;9.85;100.00;100970.81;5008632;28;20034;-72
2021/10/06 06:30:14;;;;;;;14.57;6.43;;;;;;;10.01;100.00;100980.78;5009814;28;20092;-72
2021/10/06 06:32:41;;;;;;;14.60;7.07;;;;;;;10.09;100.00;100983.53;4992070;28;20751;-71
2021/10/06 06:35:07;;;;;;;16.42;6.88;;;;;;;10.18;100.00;100987.94;4990772;28;20046;-76
2021/10/06 06:37:32;;;;;;;14.05;6.53;;;;;;;10.21;100.00;100990.28;5007368;28;20120;-72
2021/10/06 06:39:58;;;;;;;10.02;6.00;;;;;;;10.24;100.00;100991.81;4992460;28;20041;-71
2021/10/06 06:42:23;;;;;;;9.50;5.93;;;;;;;10.32;100.00;100994.59;4991876;28;20487;-72
2021/10/06 06:44:49;;;;;;;12.07;6.03;;;;;;;10.40;100.00;101002.59;4974870;28;20586;-76
2021/10/06 06:47:15;;;;;;;15.23;6.68;;;;;;;10.45;100.00;100996.94;5008717;28;20026;-72
2021/10/06 06:49:40;;;;;;;12.13;5.93;;;;;;;10.44;100.00;101001.34;4991500;28;20060;-71
2021/10/06 06:52:06;;;;;;;11.45;5.30;;;;;;;10.51;100.00;100996.41;4978523;28;20494;-73
2021/10/06 06:54:32;;;;;;;10.00;5.00;;;;;;;10.62;100.00;101001.44;4986546;28;20038;-73
2021/10/06 06:56:58;;;;;;;9.93;4.90;;;;;;;10.72;100.00;101004.09;5005564;28;20077;-72
2021/10/06 06:59:23;;;;;;;7.82;4.80;;;;;;;10.82;100.00;101009.31;4971417;28;20677;-73
2021/10/06 07:01:49;;;;;;;11.93;5.22;;;;;;;10.85;100.00;101012.47;5006092;28;20045;-73
2021/10/06 07:04:14;;;;;;;13.68;5.20;;;;;;;10.94;100.00;101020.47;5008469;28;20037;-75
2021/10/06 07:06:40;;;;;;;9.02;5.15;;;;;;;10.94;100.00;101017.84;5008498;28;20494;-74
2021/10/06 07:09:07;;;;;;;12.35;5.07;;;;;;;11.00;100.00;101022.50;5007146;28;20554;-71
2021/10/06 07:11:33;;;;;;;11.77;4.63;;;;;;;11.13;100.00;101028.28;4988349;28;20716;-72
2021/10/06 07:14:00;;;;;;;8.50;4.10;;;;;;;11.19;100.00;101037.38;4974260;28;20110;-73
2021/10/06 07:16:27;;;;;;;16.80;5.30;;;;;;;11.23;100.00;101036.16;4990069;28;20037;-73
2021/10/06 07:18:52;;;;;;;9.25;4.43;;;;;;;11.36;100.00;101044.53;5007339;28;20091;-72
2021/10/06 07:21:18;;;;;;;6.95;4.18;;;;;;;11.32;100.00;101051.03;5002847;28;20038;-74
2021/10/06 07:23:44;;;;;;;12.38;4.55;;;;;;;11.40;100.00;101045.88;5007655;28;20037;-74
2021/10/06 07:26:11;;;;;;;9.05;3.97;;;;;;;11.49;100.00;101049.44;4976058;28;20045;-72
2021/10/06 07:28:37;;;;;;;8.55;4.18;;;;;;;11.55;100.00;101050.69;4973719;28;20038;-73
2021/10/06 07:31:02;;;;;;;6.45;3.85;;;;;;;11.64;100.00;101055.03;5007669;28;20025;-73
2021/10/06 07:33:28;;;;;;;10.30;3.80;;;;;;;11.65;100.00;101054.06;4991058;28;20038;-74
2021/10/06 07:35:54;;;;;;;12.43;3.72;;;;;;;11.76;100.00;101063.56;4997390;28;20041;-73
2021/10/06 07:38:19;;;;;;;9.65;3.47;;;;;;;11.77;100.00;101057.31;4974780;28;20038;-73
2021/10/06 07:40:45;;;;;;;8.80;3.65;;;;;;;11.82;100.00;101069.03;4990981;28;20042;-74
2021/10/06 07:43:11;;;;;;;8.43;3.50;;;;;;;11.97;100.00;101073.84;5005257;28;20437;-75
2021/10/06 07:45:37;;;;;;;11.38;3.28;;;;;;;12.07;100.00;101078.09;5007731;28;20128;-72
2021/10/06 07:48:03;;;;;;;13.35;3.33;;;;;;;12.14;100.00;101082.75;5007574;28;20121;-76
2021/10/06 07:50:29;;;;;;;6.43;2.88;;;;;;;12.16;100.00;101088.69;5006337;28;20026;-75
2021/10/06 07:52:54;;;;;;;7.85;2.92;;;;;;;12.24;98.82;101086.97;4972338;28;20613;-73
2021/10/06 07:55:22;;;;;;;9.40;3.20;;;;;;;12.24;99.29;101086.97;5003344;28;20453;-73
2021/10/06 07:57:48;;;;;;;9.55;2.83;;;;;;;12.37;98.72;101093.66;4988929;28;20411;-73
2021/10/06 08:00:14;;;;;;;8.75;2.70;;;;;;;12.34;96.65;101089.53;4989817;28;20026;-74
2021/10/06 08:02:40;;;;;;;9.15;2.95;;;;;;;12.40;96.92;101094.19;4989106;28;20525;-73
2021/10/06 08:05:06;;;;;;;7.75;3.10;;;;;;;12.49;98.41;101092.47;4982893;28;20041;-74
2021/10/06 08:07:31;;;;;;;9.52;3.17;;;;;;;12.62;97.40;101105.22;4988704;28;20038;-74
2021/10/06 08:09:57;;;;;;;11.90;2.80;;;;;;;12.65;94.46;101107.56;4990436;28;20049;-72
2021/10/06 08:12:23;;;;;;;8.35;2.80;;;;;;;12.69;94.97;101111.53;4986860;28;20076;-74
2021/10/06 08:14:48;;;;;;;8.43;2.70;;;;;;;12.68;94.41;101111.69;4987184;28;20046;-74
2021/10/06 08:17:14;;;;;;;14.70;2.75;;;;;;;12.68;93.07;101119.59;4989846;28;20137;-74
2021/10/06 08:19:40;;;;;;;8.07;2.40;;;;;;;12.78;93.40;101118.53;5008321;28;20068;-73
2021/10/06 08:22:05;;;;;;;9.07;2.72;;;;;;;12.87;94.28;101119.44;4990075;28;20037;-72
2021/10/06 08:24:31;;;;;;;4.05;2.00;;;;;;;12.95;92.15;101129.19;4990196;28;20065;-77
2021/10/06 08:26:56;;;;;;;9.02;2.70;;;;;;;13.01;91.97;101128.59;4973359;28;20145;-73
2021/10/06 08:29:22;;;;;;;8.65;2.30;;;;;;;13.00;92.63;101135.66;4975319;28;20068;-73
2021/10/06 08:31:52;;;;;;;5.55;2.22;;;;;;;13.05;91.20;101130.78;4987153;28;20045;-76
2021/10/06 08:34:17;;;;;;;8.50;2.70;;;;;;;13.11;90.91;101133.75;4986585;28;20042;-73
2021/10/06 08:36:43;;;;;;;5.10;2.30;;;;;;;13.17;90.50;101139.25;5003391;28;20045;-73
2021/10/06 08:39:09;;;;;;;8.65;2.00;;;;;;;13.20;90.17;101151.28;4989556;28;20042;-73
2021/10/06 08:41:36;;;;;;;7.57;2.45;;;;;;;13.28;89.49;101146.09;4969604;28;20041;-73
2021/10/06 08:44:01;;;;;;;8.55;2.05;;;;;;;13.30;88.70;101156.44;5007469;28;20096;-73
2021/10/06 08:46:27;;;;;;;7.78;2.08;;;;;;;13.40;90.69;101157.22;5006422;28;20049;-73
2021/10/06 08:48:54;;;;;;;7.50;1.88;;;;;;;13.36;88.58;101164.59;4975600;28;20046;-74
2021/10/06 08:51:21;;;;;;;8.25;2.08;;;;;;;13.40;90.08;101159.84;5008050;28;20522;-72
2021/10/06 08:53:48;;;;;;;7.30;2.38;;;;;;;13.46;88.75;101158.41;5007557;28;20100;-77
2021/10/06 08:56:14;;;;;;;8.35;2.50;;;;;;;13.56;88.62;101164.38;4990557;28;20026;-74
2021/10/06 08:58:40;;;;;;;9.55;2.08;;;;;;;13.58;86.40;101165.91;5004466;28;20037;-75
2021/10/06 09:01:05;;;;;;;5.75;1.90;;;;;;;13.66;86.76;101177.47;5012118;28;20040;-74
2021/10/06 09:03:36;;;;;;;5.63;2.00;;;;;;;13.66;87.41;101185.38;5011242;28;20491;-75
2021/10/06 09:06:14;;;;;;;5.63;2.08;;;;;;;13.61;89.19;101189.28;4992852;28;20109;-74
2021/10/06 09:08:45;;;;;;;5.65;1.88;;;;;;;13.55;90.27;101189.91;4982474;28;20125;-73
2021/10/06 09:11:12;;;;;;;7.75;2.55;;;;;;;13.44;88.26;101193.63;4993488;28;20037;-72
2021/10/06 09:13:41;;;;;;;6.10;1.75;;;;;;;13.49;87.65;101195.00;5011690;28;20065;-75
2021/10/06 09:16:07;;;;;;;6.18;2.38;;;;;;;13.41;87.17;101196.59;4993274;28;20033;-73
2021/10/06 09:18:34;;;;;;;7.53;1.98;;;;;;;13.49;86.81;101200.28;4994422;28;20041;-73
2021/10/06 09:21:03;;;;;;;5.55;1.63;;;;;;;13.69;87.41;101201.69;4999074;28;20030;-72
2021/10/06 09:23:29;;;;;;;4.97;1.75;;;;;;;13.87;85.96;101203.47;4995484;28;20041;-76
2021/10/06 09:26:02;;;;;;;6.03;1.25;;;;;;;13.96;82.96;101211.25;4986165;28;20108;-74
2021/10/06 09:28:30;;;;;;;4.43;1.45;;;;;;;13.68;84.54;101209.78;5007390;28;20068;-74
2021/10/06 09:31:13;;;;;;;6.47;1.40;;;;;;;13.53;84.75;101217.41;4991483;28;20677;-72
2021/10/06 09:33:42;;;;;;;2.92;1.30;;;;;;;13.61;85.42;101212.19;4995371;28;20034;-73
2021/10/06 09:36:29;;;;;;;5.32;1.48;;;;;;;13.83;84.78;101222.22;5014454;28;20045;-72
2021/10/06 09:38:58;;;;;;;7.25;1.45;;;;;;;13.85;84.18;101221.25;4976112;28;20030;-73
2021/10/06 09:41:37;;;;;;;6.35;1.10;;;;;;;13.96;81.41;101226.25;4986767;28;20038;-72
2021/10/06 09:44:09;;;;;;;5.30;1.20;;;;;;;14.08;79.73;101229.44;5009782;28;20451;-74
2021/10/06 09:47:04;;;;;;;5.72;1.55;;;;;;;14.24;80.04;101231.31;4996433;28;20034;-73
2021/10/06 09:49:31;;;;;;;5.03;1.40;;;;;;;14.24;79.86;101233.94;4986322;28;20073;-75
2021/10/06 09:52:14;;;;;;;4.93;1.25;;;;;;;14.13;80.93;101230.63;4996797;28;20391;-72
2021/10/06 09:55:01;;;;;;;6.85;1.33;;;;;;;13.98;80.42;101232.19;4983670;28;20119;-75
2021/10/06 09:57:33;;;;;;;3.60;1.48;;;;;;;13.89;82.43;101230.50;4991564;28;21283;-72
2021/10/06 10:00:07;;;;;;;3.85;1.40;;;;;;;14.21;81.53;101229.81;5000164;28;20403;-74
2021/10/06 10:02:40;;;;;;;4.65;1.58;;;;;;;14.43;80.91;101230.22;4989450;28;20037;-72
2021/10/06 10:05:07;;;;;;;5.07;1.15;;;;;;;14.64;77.98;101241.22;4975791;28;20053;-72
2021/10/06 10:07:33;;;;;;;6.00;1.60;;;;;;;14.74;77.73;101238.44;4976397;28;20482;-73
2021/10/06 10:09:58;;;;;;;2.88;1.27;;;;;;;14.43;78.60;101239.00;4987604;28;20058;-73
2021/10/06 10:12:26;;;;;;;3.35;1.05;;;;;;;14.14;79.80;101247.25;4988504;28;20264;-72
2021/10/06 10:14:56;;;;;;;2.45;0.98;;;;;;;13.85;79.98;101251.06;5009496;28;20053;-74
2021/10/06 10:17:23;;;;;;;3.42;0.90;;;;;;;13.68;80.57;101258.03;5009602;28;20029;-73
2021/10/06 10:20:11;;;;;;;2.22;0.90;;;;;;;13.58;80.30;101257.28;4973886;28;20769;-72
2021/10/06 10:22:41;;;;;;;4.85;1.30;;;;;;;13.87;79.90;101262.28;5009067;28;20034;-77
2021/10/06 10:25:25;;;;;;;7.85;1.13;;;;;;;14.30;78.39;101267.63;4976363;28;20044;-74
2021/10/06 10:28:06;;;;;;;5.10;1.10;;;;;;;14.50;76.94;101257.63;4990949;28;20071;-73
2021/10/06 10:30:34;;;;;;;2.83;1.10;;;;;;;14.43;79.34;101264.53;4991747;28;20037;-73
2021/10/06 10:33:02;;;;;;;4.68;1.10;;;;;;;14.32;79.49;101269.13;4986160;22;20062;-74
2021/10/06 10:35:43;;;;;;;2.17;0.95;;;;;;;14.25;77.58;101269.91;4974107;28;20054;-73
2021/10/06 10:38:16;;;;;;;6.85;1.13;;;;;;;14.18;81.67;101278.47;4988446;28;20654;-72
2021/10/06 10:40:44;;;;;;;4.13;1.30;;;;;;;14.14;81.84;101276.28;5003157;28;20079;-74
2021/10/06 10:43:09;;;;;;;2.85;1.20;;;;;;;14.11;81.34;101287.97;4997776;28;20030;-74
2021/10/06 10:45:37;;;;;;;2.60;0.95;;;;;;;13.99;82.50;101291.84;5004944;28;20506;-73
2021/10/06 10:48:04;;;;;;;6.28;1.10;;;;;;;13.86;81.50;101283.53;5008515;28;20038;-71
2021/10/06 10:51:03;;;;;;;2.65;0.90;;;;;;;13.75;79.91;101289.88;4974827;28;20041;-71
2021/10/06 10:53:59;;;;;;;5.50;1.50;;;;;;;13.76;82.72;101294.19;4981720;28;20042;-73
2021/10/06 10:56:38;;;;;;;3.67;1.00;;;;;;;13.80;81.52;101296.34;4956057;28;20510;-73
2021/10/06 10:59:06;;;;;;;3.15;1.05;;;;;;;13.84;78.62;101299.50;5006647;28;20030;-71
2021/10/06 11:01:57;;;;;;;2.78;1.20;;;;;;;13.72;82.06;101295.47;5008136;28;20465;-74
2021/10/06 11:04:30;;;;;;;3.72;1.10;;;;;;;13.60;85.44;101297.53;5003465;28;20406;-72
2021/10/06 11:07:14;;;;;;;4.00;0.90;;;;;;;13.51;80.86;101296.63;5008662;28;20041;-72
2021/10/06 11:09:44;;;;;;;3.72;0.80;;;;;;;13.50;83.02;101313.41;4970002;28;20038;-72
2021/10/06 11:12:14;;;;;;;4.15;1.10;;;;;;;13.41;80.68;101307.25;4991566;28;20110;-72
2021/10/06 11:14:45;;;;;;;5.93;1.05;;;;;;;13.39;80.56;101308.38;5002152;28;20038;-72